NV34 weather

University Medical Center-Southern Nevada Heliport
Las Vegas, Nevada, United States

Public forecast

Using degrees Fahrenheit for public forecast. Weather courtesy of forecast.io.

METAR (pilot weather report)

Closest report is North Las Vegas Airport, 3.3 nm (6.2 km) NNW. Retrieved 2019/03/22 21:53 UTC (46 minutes ago):

KVGT 222153Z 35006KT 10SM SCT070 18/01 A3003 RMK AO2 SLP180 T01830011

TAF (pilot weather forecast)

Closest forecast is North Las Vegas Airport, 3.3 nm (6.2 km) NNW. Retrieved 2019/03/22 18:27 UTC (4 hours ago):

TAF KVGT 221725Z 2218/2318 VRB05KT P6SM FEW100 FEW200 FM230400 30006KT P6SM SCT150 BKN200 FM231300 VRB05KT P6SM SCT150 BKN200